DW4253 Weather Reports


time (UTC)temp
C
wind
direction
speed
KPH
gust
KPH
rain 1hr
cm
rain 24hr
cm
rain mn
cm
humidity
%
barometer
mb
20190425170305 13 197 6.4 16.1 0.00 0.76 0.18 78 1007.1
20190425160805 13 185 8.0 16.1 0.03 0.76 0.18 79 1006.9
20190425150805 12 235 8.0 14.5 0.05 0.74 0.15 84 1006.8
20190425150305 12 240 4.8 22.5 0.05 0.74 0.15 84 1006.7
20190425140804 13 187 8.0 14.5 0.05 0.71 0.13 83 1006.6
20190425140304 13 197 11.3 22.5 0.05 0.71 0.13 84 1006.5
20190425130304 14 219 9.7 32.2 0.05 0.66 0.08 80 1005.9
20190425120804 16 184 4.8 9.7 0.00 0.61 0.03 68 1004.6
20190425120305 16 182 9.7 22.5 0.00 0.61 0.03 67 1004.6
20190425110805 17 182 11.3 24.1 0.00 0.61 0.03 64 1004.9
20190425110304 17 180 9.7 32.2 0.00 0.61 0.03 67 1005.0
20190425090804 14 195 6.4 11.3 0.00 0.61 0.03 71 1005.3
20190425080806 12 177 8.0 14.5 0.00 0.61 0.03 74 1005.5
20190425080308 12 194 6.4 14.5 0.00 0.61 0.03 75 1005.5
20190425070807 11 181 4.8 9.7 0.00 0.61 0.03 79 1004.8
20190425070307 11 186 8.0 11.3 0.00 0.61 0.03 79 1004.9
20190425060808 10 182 3.2 9.7 0.00 0.61 0.03 84 1004.3
20190425060308 10 189 4.8 9.7 0.00 0.61 0.03 85 1004.3
20190425050807 8 181 3.2 4.8 0.00 0.61 0.03 88 1004.0
20190425040806 8 179 3.2 9.7 0.00 0.61 0.03 89 1003.9
20190425040308 8 177 3.2 9.7 0.00 0.61 0.03 89 1003.9
20190425030807 8 185 3.2 4.8 0.00 0.61 0.03 91 1003.8
20190425030306 8 184 3.2 9.7 0.00 0.61 0.03 91 1003.6
20190425020806 8 84 1.6 4.8 0.00 0.61 0.03 91 1003.9
20190425010805 8 177 1.6 3.2 0.00 0.61 0.03 90 1004.4
20190425000806 9 175 3.2 4.8 0.00 0.61 0.03 90 1004.2
20190425000308 9 167 3.2 12.9 0.00 0.61 0.03 90 1004.0
20190424230306 10 180 6.4 14.5 0.03 0.61 0.03 89 1003.8
20190424220307 10 183 3.2 11.3 0.00 0.58 0.00 90 1003.8
20190424200806 11 197 4.8 12.9 0.15 0.53 0.53 90 1003.9
20190424200305 11 181 4.8 16.1 0.15 0.51 0.51 89 1003.8
20190424190307 11 181 6.4 16.1 0.23 0.38 0.38 89 1002.7
20190424180807 12 185 4.8 14.5 0.15 0.15 0.15 85 1001.8
20190424180309 12 186 4.8 33.8 0.15 0.15 0.15 85 1001.8